createdAt,value
2022-11-04T00:00:55.682Z,10.10
2022-11-04T00:03:22.852Z,10.10
2022-11-04T00:05:49.857Z,10.00
2022-11-04T00:08:25.963Z,10.10
2022-11-04T00:11:18.933Z,10.10
2022-11-04T00:13:47.092Z,10.00
2022-11-04T00:16:33.899Z,10.00
2022-11-04T00:19:02.441Z,10.00
2022-11-04T00:21:48.461Z,10.00
2022-11-04T00:24:30.992Z,10.00
2022-11-04T00:27:18.517Z,10.00
2022-11-04T00:29:45.625Z,9.90
2022-11-04T00:32:31.149Z,9.90
2022-11-04T00:34:58.417Z,9.90
2022-11-04T00:37:25.560Z,9.90
2022-11-04T00:39:52.609Z,9.90
2022-11-04T00:42:19.729Z,9.90
2022-11-04T00:44:46.731Z,9.90
2022-11-04T00:47:13.738Z,9.90
2022-11-04T00:49:40.777Z,9.90
2022-11-04T00:52:07.780Z,9.90
2022-11-04T00:54:34.791Z,9.90
2022-11-04T00:57:01.906Z,9.90
2022-11-04T00:59:29.159Z,9.90
2022-11-04T01:01:56.897Z,9.90
2022-11-04T01:04:24.044Z,9.90
2022-11-04T01:06:51.659Z,9.90
2022-11-04T01:09:19.076Z,9.80
2022-11-04T01:11:46.342Z,9.80
2022-11-04T01:14:13.665Z,9.90
2022-11-04T01:16:41.151Z,9.80
2022-11-04T01:19:10.165Z,9.80
2022-11-04T01:21:37.424Z,9.80
2022-11-04T01:24:05.173Z,9.80
2022-11-04T01:26:32.368Z,9.80
2022-11-04T01:29:00.285Z,9.80
2022-11-04T01:31:30.628Z,9.70
2022-11-04T01:33:58.994Z,9.70
2022-11-04T01:36:27.919Z,9.70
2022-11-04T01:38:57.109Z,9.70
2022-11-04T01:41:28.771Z,9.70
2022-11-04T01:44:23.202Z,9.70
2022-11-04T01:46:53.049Z,9.70
2022-11-04T01:49:26.024Z,9.80
2022-11-04T01:52:00.355Z,9.80
2022-11-04T01:54:28.454Z,9.80
2022-11-04T01:56:58.906Z,9.70
2022-11-04T01:59:30.867Z,9.70
2022-11-04T02:01:58.151Z,9.70
2022-11-04T02:04:28.253Z,9.70
2022-11-04T02:07:00.229Z,9.60
2022-11-04T02:09:32.325Z,9.60
2022-11-04T02:12:18.293Z,9.50
2022-11-04T02:14:48.596Z,9.60
2022-11-04T02:18:04.875Z,9.60
2022-11-04T02:20:53.431Z,9.60
2022-11-04T02:24:39.922Z,9.70
2022-11-04T02:27:28.708Z,9.70
2022-11-04T02:30:10.447Z,9.70
2022-11-04T02:32:52.539Z,9.60
2022-11-04T02:35:40.903Z,9.60
2022-11-04T02:38:49.229Z,9.60
2022-11-04T02:41:35.482Z,9.60
2022-11-04T02:44:21.514Z,9.60
2022-11-04T02:46:54.581Z,9.60
2022-11-04T02:49:31.946Z,9.60
2022-11-04T02:52:04.131Z,9.50
2022-11-04T02:54:47.780Z,9.40
2022-11-04T02:57:22.217Z,9.50
2022-11-04T03:00:02.450Z,9.40
2022-11-04T03:02:47.982Z,9.40
2022-11-04T03:05:20.278Z,9.40
2022-11-04T03:07:50.564Z,9.40
2022-11-04T03:10:29.254Z,9.40
2022-11-04T03:13:08.651Z,9.40
2022-11-04T03:15:40.085Z,9.30
2022-11-04T03:18:36.734Z,9.30
2022-11-04T03:21:07.598Z,9.30
2022-11-04T03:23:35.795Z,9.30
2022-11-04T03:26:41.177Z,9.30
2022-11-04T03:29:40.582Z,9.30
2022-11-04T03:32:33.401Z,9.30
2022-11-04T03:35:00.476Z,9.30
2022-11-04T03:37:27.863Z,9.30
2022-11-04T03:39:55.916Z,9.20
2022-11-04T03:42:24.987Z,9.20
2022-11-04T03:44:55.619Z,9.20
2022-11-04T03:47:28.348Z,9.20
2022-11-04T03:50:27.892Z,9.20
2022-11-04T03:52:56.115Z,9.10
2022-11-04T03:55:36.905Z,9.10
2022-11-04T03:58:16.349Z,9.10
2022-11-04T04:00:58.258Z,9.10
2022-11-04T04:03:35.452Z,9.00
2022-11-04T04:06:19.451Z,8.90
2022-11-04T04:08:53.540Z,8.90
2022-11-04T04:11:41.532Z,8.90
2022-11-04T04:14:40.753Z,8.80
2022-11-04T04:17:20.067Z,8.70
2022-11-04T04:19:56.588Z,8.70
2022-11-04T04:22:30.200Z,8.60
2022-11-04T04:25:20.081Z,8.60
2022-11-04T04:27:48.933Z,8.50
2022-11-04T04:30:17.560Z,8.50
2022-11-04T04:32:49.937Z,8.50
2022-11-04T04:35:39.098Z,8.40
2022-11-04T04:38:32.005Z,8.40
2022-11-04T04:41:30.140Z,8.30
2022-11-04T04:44:18.082Z,8.30
2022-11-04T04:46:48.139Z,8.30
2022-11-04T04:49:15.488Z,8.20
2022-11-04T04:51:47.644Z,8.20
2022-11-04T04:54:15.372Z,8.10
2022-11-04T04:56:43.756Z,8.10
2022-11-04T04:59:10.864Z,8.00
2022-11-04T05:01:37.956Z,7.90
2022-11-04T05:04:05.211Z,7.90
2022-11-04T05:06:32.268Z,7.90
2022-11-04T05:08:59.333Z,7.90
2022-11-04T05:11:27.338Z,7.90
2022-11-04T05:13:54.737Z,7.90
2022-11-04T05:16:22.408Z,7.90
2022-11-04T05:18:52.056Z,7.80
2022-11-04T05:21:19.347Z,7.70
2022-11-04T05:23:46.379Z,7.70
2022-11-04T05:26:15.086Z,7.60
2022-11-04T05:28:43.776Z,7.60
2022-11-04T05:31:10.944Z,7.60
2022-11-04T05:33:37.963Z,7.50
2022-11-04T05:36:14.850Z,7.50
2022-11-04T05:38:42.661Z,7.40
2022-11-04T05:41:12.597Z,7.40
2022-11-04T05:43:39.620Z,7.50
2022-11-04T05:46:08.285Z,7.50
2022-11-04T05:48:40.160Z,7.50
2022-11-04T05:51:07.720Z,7.50
2022-11-04T05:53:34.732Z,7.50
2022-11-04T05:56:02.799Z,7.60
2022-11-04T05:58:29.845Z,7.60
2022-11-04T06:01:27.746Z,7.60
2022-11-04T06:03:55.525Z,7.70
2022-11-04T06:06:25.138Z,7.70
2022-11-04T06:08:52.691Z,7.70
2022-11-04T06:11:21.832Z,7.70
2022-11-04T06:13:49.690Z,7.80
2022-11-04T06:16:17.027Z,7.80
2022-11-04T06:18:44.100Z,7.80
2022-11-04T06:21:30.314Z,7.90
2022-11-04T06:23:58.936Z,8.00
2022-11-04T06:26:28.701Z,8.00
2022-11-04T06:28:57.075Z,8.00
2022-11-04T06:31:24.538Z,7.90
2022-11-04T06:33:51.615Z,7.90
2022-11-04T06:36:19.854Z,7.90
2022-11-04T06:38:47.052Z,7.90
2022-11-04T06:41:17.006Z,7.90
2022-11-04T06:43:44.489Z,7.90
2022-11-04T06:46:43.085Z,7.90
2022-11-04T06:49:17.660Z,8.00
2022-11-04T06:51:45.236Z,8.00
2022-11-04T06:54:12.693Z,8.00
2022-11-04T06:56:40.392Z,8.00
2022-11-04T06:59:07.868Z,8.00
2022-11-04T07:01:37.160Z,8.00
2022-11-04T07:04:07.658Z,8.00
2022-11-04T07:06:36.288Z,8.00
2022-11-04T07:09:05.675Z,8.00
2022-11-04T07:11:33.917Z,8.10
2022-11-04T07:14:01.028Z,8.10
2022-11-04T07:16:29.296Z,8.10
2022-11-04T07:18:56.565Z,8.20
2022-11-04T07:21:24.221Z,8.10
2022-11-04T07:23:51.621Z,8.20
2022-11-04T07:26:19.130Z,8.20
2022-11-04T07:28:46.737Z,8.20
2022-11-04T07:31:15.492Z,8.30
2022-11-04T07:33:42.620Z,8.40
2022-11-04T07:36:13.112Z,8.50
2022-11-04T07:38:40.168Z,8.50
2022-11-04T07:41:08.470Z,8.60
2022-11-04T07:43:35.529Z,8.50
2022-11-04T07:46:12.414Z,8.60
2022-11-04T07:48:39.762Z,8.60
2022-11-04T07:51:09.840Z,8.70
2022-11-04T07:53:37.102Z,8.80
2022-11-04T07:56:11.738Z,8.80
2022-11-04T07:58:39.010Z,8.80
2022-11-04T08:01:11.798Z,8.80
2022-11-04T08:03:39.011Z,8.80
2022-11-04T08:06:09.534Z,8.70
2022-11-04T08:08:36.756Z,8.90
2022-11-04T08:11:17.497Z,9.00
2022-11-04T08:13:46.098Z,9.00
2022-11-04T08:16:20.057Z,9.00
2022-11-04T08:18:48.601Z,9.00
2022-11-04T08:21:16.507Z,9.10
2022-11-04T08:23:44.585Z,9.10
2022-11-04T08:26:15.068Z,9.10
2022-11-04T08:28:42.187Z,9.20
2022-11-04T08:31:20.756Z,9.20
2022-11-04T08:33:48.209Z,9.20
2022-11-04T08:36:28.540Z,9.10
2022-11-04T08:38:57.115Z,9.40
2022-11-04T08:41:29.309Z,9.40
2022-11-04T08:44:00.168Z,9.50
2022-11-04T08:46:38.550Z,9.60
2022-11-04T08:49:09.997Z,9.60
2022-11-04T08:51:43.855Z,9.70
2022-11-04T08:54:11.483Z,9.80
2022-11-04T08:56:39.913Z,9.90
2022-11-04T08:59:08.597Z,9.90
2022-11-04T09:01:37.395Z,9.90
2022-11-04T09:04:05.597Z,9.80
2022-11-04T09:06:37.292Z,9.90
2022-11-04T09:09:10.382Z,10.00
2022-11-04T09:11:41.777Z,10.00
2022-11-04T09:14:09.688Z,10.00
2022-11-04T09:16:38.362Z,10.00
2022-11-04T09:19:05.663Z,10.10
2022-11-04T09:21:32.800Z,10.10
2022-11-04T09:23:59.863Z,10.20
2022-11-04T09:26:27.422Z,10.20
2022-11-04T09:28:59.261Z,10.30
2022-11-04T09:31:29.698Z,10.40
2022-11-04T09:33:57.637Z,10.40
2022-11-04T09:36:25.137Z,10.40
2022-11-04T09:38:53.493Z,10.40
2022-11-04T09:42:01.402Z,10.40
2022-11-04T09:45:20.065Z,10.50
2022-11-04T09:47:45.329Z,10.50
2022-11-04T09:50:27.633Z,10.50
2022-11-04T09:53:17.784Z,10.40
2022-11-04T09:55:58.197Z,10.40
2022-11-04T09:58:25.665Z,10.50
2022-11-04T10:01:13.162Z,10.50
2022-11-04T10:04:03.124Z,10.50
2022-11-04T10:06:38.307Z,10.60
2022-11-04T10:09:30.123Z,10.70
2022-11-04T10:12:28.520Z,10.90
2022-11-04T10:15:35.328Z,11.10
2022-11-04T10:18:38.638Z,11.40
2022-11-04T10:21:19.213Z,11.30
2022-11-04T10:24:05.869Z,11.30
2022-11-04T10:26:56.105Z,11.40
2022-11-04T10:30:01.727Z,11.40
2022-11-04T10:32:53.042Z,11.40
2022-11-04T10:35:39.909Z,11.30
2022-11-04T10:38:22.599Z,11.30
2022-11-04T10:40:54.405Z,11.30
2022-11-04T10:43:37.482Z,11.20
2022-11-04T10:47:23.372Z,11.10
2022-11-04T10:50:32.133Z,10.90
2022-11-04T10:53:19.879Z,10.80
2022-11-04T10:56:22.802Z,10.70
2022-11-04T10:58:49.964Z,10.70
2022-11-04T11:01:35.608Z,10.90
2022-11-04T11:04:07.649Z,11.00
2022-11-04T11:06:36.608Z,11.10
2022-11-04T11:09:13.520Z,11.20
2022-11-04T11:12:49.443Z,11.30
2022-11-04T11:15:25.457Z,11.40
2022-11-04T11:18:17.194Z,11.40
2022-11-04T11:21:05.745Z,11.50
2022-11-04T11:23:47.516Z,11.50
2022-11-04T11:26:22.401Z,11.60
2022-11-04T11:28:59.217Z,11.90
2022-11-04T11:31:35.554Z,11.90
2022-11-04T11:34:27.044Z,12.10
2022-11-04T11:36:56.811Z,12.30
2022-11-04T11:39:34.960Z,12.60
2022-11-04T11:42:06.969Z,12.80
2022-11-04T11:44:44.546Z,12.90
2022-11-04T11:47:42.235Z,12.80
2022-11-04T11:50:22.392Z,12.60
2022-11-04T11:52:51.059Z,12.50
2022-11-04T11:55:27.050Z,12.40
2022-11-04T12:02:21.021Z,12.30
2022-11-04T12:11:01.821Z,12.50
2022-11-04T12:13:56.096Z,12.50
2022-11-04T12:17:14.329Z,12.50
2022-11-04T12:20:13.333Z,12.50
2022-11-04T12:23:18.638Z,12.50
2022-11-04T12:26:24.828Z,12.40
2022-11-04T12:29:37.212Z,12.20
2022-11-04T12:32:48.751Z,12.10
2022-11-04T12:35:47.515Z,11.90
2022-11-04T12:38:44.812Z,11.80
2022-11-04T12:42:19.498Z,11.70
2022-11-04T12:45:12.207Z,11.40
2022-11-04T12:47:49.605Z,11.30
2022-11-04T12:50:44.016Z,11.20
2022-11-04T12:53:32.280Z,11.00
2022-11-04T12:56:15.303Z,11.10
2022-11-04T12:59:27.008Z,11.00
2022-11-04T13:02:27.241Z,10.90
2022-11-04T13:05:36.734Z,10.70
2022-11-04T13:08:13.970Z,10.50
2022-11-04T13:11:22.839Z,10.30
2022-11-04T13:14:02.106Z,10.10
2022-11-04T13:16:34.553Z,10.10
2022-11-04T13:19:02.753Z,10.00
2022-11-04T13:21:36.731Z,9.90
2022-11-04T13:24:21.276Z,9.80
2022-11-04T13:26:48.472Z,9.70
2022-11-04T13:29:21.459Z,9.60
2022-11-04T13:32:16.695Z,9.60
2022-11-04T13:35:04.038Z,9.60
2022-11-04T13:37:40.224Z,9.60
2022-11-04T13:40:22.041Z,9.50
2022-11-04T13:43:39.764Z,9.50
2022-11-04T13:46:18.881Z,9.60
2022-11-04T13:49:07.136Z,9.60
2022-11-04T13:51:40.884Z,9.60
2022-11-04T13:54:37.562Z,9.70
2022-11-04T13:57:26.412Z,9.70
2022-11-04T14:00:21.564Z,9.70
2022-11-04T14:02:54.751Z,9.80
2022-11-04T14:05:28.895Z,9.90
2022-11-04T14:08:01.786Z,9.90
2022-11-04T14:11:03.668Z,10.00
2022-11-04T14:13:30.898Z,10.10
2022-11-04T14:16:38.744Z,10.10
2022-11-04T14:19:56.085Z,10.20
2022-11-04T14:22:34.260Z,10.30
2022-11-04T14:25:21.560Z,10.30
2022-11-04T14:28:09.490Z,10.40
2022-11-04T14:31:02.640Z,10.30
2022-11-04T14:33:50.429Z,10.30
2022-11-04T14:36:20.449Z,10.40
2022-11-04T14:39:11.083Z,10.60
2022-11-04T14:41:40.806Z,10.60
2022-11-04T14:44:21.472Z,10.70
2022-11-04T14:46:54.312Z,10.90
2022-11-04T14:49:39.885Z,10.90
2022-11-04T14:52:20.889Z,10.90
2022-11-04T14:54:49.720Z,10.80
2022-11-04T14:57:22.410Z,10.70
2022-11-04T14:59:52.397Z,10.60
2022-11-04T15:02:29.946Z,10.50
2022-11-04T15:05:00.398Z,10.30
2022-11-04T15:07:37.185Z,10.20
2022-11-04T15:10:24.876Z,10.20
2022-11-04T15:13:00.182Z,10.10
2022-11-04T15:15:38.394Z,10.10
2022-11-04T15:18:30.663Z,10.20
2022-11-04T15:21:01.187Z,10.20
2022-11-04T15:23:39.966Z,10.20
2022-11-04T15:26:07.111Z,10.20
2022-11-04T15:28:45.470Z,10.20
2022-11-04T15:31:12.444Z,10.20
2022-11-04T15:33:47.460Z,10.10
2022-11-04T15:36:24.469Z,10.00
2022-11-04T15:39:08.424Z,10.00
2022-11-04T15:41:57.864Z,10.00
2022-11-04T15:44:29.190Z,10.00
2022-11-04T15:47:00.080Z,9.90
2022-11-04T15:49:36.805Z,9.80
2022-11-04T15:52:13.342Z,9.70
2022-11-04T15:54:43.775Z,9.70
2022-11-04T15:57:24.052Z,9.70
2022-11-04T15:59:58.306Z,9.60
2022-11-04T16:02:29.647Z,9.50
2022-11-04T16:05:10.739Z,9.40
2022-11-04T16:08:15.117Z,9.40
2022-11-04T16:10:43.102Z,9.40
2022-11-04T16:13:24.412Z,9.40
2022-11-04T16:16:00.139Z,9.40
2022-11-04T16:18:37.333Z,9.30
2022-11-04T16:21:21.948Z,9.30
2022-11-04T16:24:03.770Z,9.30
2022-11-04T16:26:37.702Z,9.30
2022-11-04T16:29:13.825Z,9.30
2022-11-04T16:31:40.842Z,9.30
2022-11-04T16:34:13.190Z,9.30
2022-11-04T16:36:40.493Z,9.30
2022-11-04T16:39:08.912Z,9.30
2022-11-04T16:41:40.677Z,9.30
2022-11-04T16:44:20.166Z,9.30
2022-11-04T16:46:47.495Z,9.30
2022-11-04T16:49:21.048Z,9.30
2022-11-04T16:51:54.696Z,9.20
2022-11-04T16:54:22.792Z,9.20
2022-11-04T16:56:49.965Z,9.00
2022-11-04T16:59:17.065Z,9.00
2022-11-04T17:01:44.205Z,9.00
2022-11-04T17:04:11.447Z,9.00
2022-11-04T17:06:39.366Z,9.10
2022-11-04T17:09:23.319Z,9.10
2022-11-04T17:11:50.702Z,9.10
2022-11-04T17:14:17.799Z,9.10
2022-11-04T17:16:44.919Z,9.10
2022-11-04T17:19:16.782Z,9.10
2022-11-04T17:21:45.372Z,9.00
2022-11-04T17:24:12.666Z,9.00
2022-11-04T17:26:39.964Z,8.80
2022-11-04T17:29:06.984Z,8.70
2022-11-04T17:31:34.251Z,8.70
2022-11-04T17:34:01.515Z,8.70
2022-11-04T17:36:30.208Z,8.70
2022-11-04T17:38:57.569Z,8.80
2022-11-04T17:41:43.443Z,8.80
2022-11-04T17:44:10.583Z,8.80
2022-11-04T17:46:48.862Z,8.80
2022-11-04T17:49:19.807Z,8.80
2022-11-04T17:51:53.673Z,8.80
2022-11-04T17:54:23.641Z,8.80
2022-11-04T17:56:50.865Z,8.80
2022-11-04T17:59:37.112Z,8.80
2022-11-04T18:02:04.412Z,8.80
2022-11-04T18:04:31.521Z,8.60
2022-11-04T18:07:02.823Z,8.60
2022-11-04T18:09:32.810Z,8.50
2022-11-04T18:12:20.451Z,8.50
2022-11-04T18:14:47.437Z,8.50
2022-11-04T18:17:14.472Z,8.50
2022-11-04T18:19:42.570Z,8.50
2022-11-04T18:22:09.602Z,8.40
2022-11-04T18:24:36.667Z,8.30
2022-11-04T18:27:03.888Z,8.30
2022-11-04T18:29:31.102Z,8.20
2022-11-04T18:31:58.633Z,8.20
2022-11-04T18:34:25.746Z,8.20
2022-11-04T18:36:52.962Z,8.10
2022-11-04T18:39:20.282Z,8.10
2022-11-04T18:41:47.834Z,8.10
2022-11-04T18:44:19.165Z,8.10
2022-11-04T18:46:46.745Z,8.00
2022-11-04T18:49:15.438Z,8.10
2022-11-04T18:51:42.664Z,8.10
2022-11-04T18:54:11.893Z,8.00
2022-11-04T18:56:39.113Z,8.00
2022-11-04T18:59:10.258Z,8.00
2022-11-04T19:01:38.192Z,8.00
2022-11-04T19:04:05.722Z,8.00
2022-11-04T19:06:38.648Z,7.90
2022-11-04T19:09:40.035Z,7.90
2022-11-04T19:12:26.481Z,7.80
2022-11-04T19:14:54.090Z,7.80
2022-11-04T19:17:21.785Z,7.80
2022-11-04T19:19:49.349Z,7.80
2022-11-04T19:22:17.507Z,7.80
2022-11-04T19:24:44.606Z,7.90
2022-11-04T19:27:11.680Z,8.00
2022-11-04T19:29:38.737Z,8.00
2022-11-04T19:32:11.097Z,8.00
2022-11-04T19:34:42.606Z,8.00
2022-11-04T19:37:10.767Z,8.00
2022-11-04T19:39:38.368Z,8.00
2022-11-04T19:42:24.311Z,8.00
2022-11-04T19:44:51.315Z,8.00
2022-11-04T19:47:18.316Z,8.10
2022-11-04T19:49:45.426Z,8.10
2022-11-04T19:52:12.585Z,8.10
2022-11-04T19:54:40.063Z,8.10
2022-11-04T19:57:08.617Z,8.20
2022-11-04T19:59:35.636Z,8.20
2022-11-04T20:02:02.826Z,8.20
2022-11-04T20:04:33.016Z,8.30
2022-11-04T20:07:00.058Z,8.30
2022-11-04T20:09:27.142Z,8.40
2022-11-04T20:12:13.260Z,8.40
2022-11-04T20:14:40.651Z,8.40
2022-11-04T20:17:08.061Z,8.50
2022-11-04T20:19:35.442Z,8.50
2022-11-04T20:22:03.493Z,8.50
2022-11-04T20:24:30.638Z,8.50
2022-11-04T20:26:58.228Z,8.60
2022-11-04T20:29:25.840Z,8.60
2022-11-04T20:31:52.845Z,8.60
2022-11-04T20:34:19.944Z,8.60
2022-11-04T20:36:46.966Z,8.60
2022-11-04T20:39:17.994Z,8.60
2022-11-04T20:41:45.814Z,8.70
2022-11-04T20:44:17.770Z,8.70
2022-11-04T20:46:45.271Z,8.70
2022-11-04T20:49:14.746Z,8.70
2022-11-04T20:51:48.649Z,8.70
2022-11-04T20:54:20.983Z,8.70
2022-11-04T20:56:48.053Z,8.70
2022-11-04T20:59:15.146Z,8.70
2022-11-04T21:01:46.326Z,8.70
2022-11-04T21:04:19.643Z,8.70
2022-11-04T21:06:49.232Z,8.70
2022-11-04T21:09:18.454Z,8.70
2022-11-04T21:11:45.766Z,8.80
2022-11-04T21:14:16.222Z,8.70
2022-11-04T21:16:43.873Z,8.70
2022-11-04T21:19:12.159Z,8.70
2022-11-04T21:21:42.513Z,8.70
2022-11-04T21:24:13.527Z,8.70
2022-11-04T21:26:41.312Z,8.80
2022-11-04T21:29:13.657Z,8.80
2022-11-04T21:31:41.707Z,8.80
2022-11-04T21:34:09.277Z,8.80
2022-11-04T21:36:37.462Z,8.80
2022-11-04T21:39:05.476Z,8.80
2022-11-04T21:41:33.771Z,8.70
2022-11-04T21:44:04.276Z,8.70
2022-11-04T21:46:33.421Z,8.70
2022-11-04T21:49:01.138Z,8.70
2022-11-04T21:51:31.499Z,8.80
2022-11-04T21:54:00.191Z,8.80
2022-11-04T21:56:34.132Z,8.80
2022-11-04T21:59:01.732Z,8.80
2022-11-04T22:01:30.981Z,8.80
2022-11-04T22:04:01.055Z,8.80
2022-11-04T22:06:35.132Z,8.90
2022-11-04T22:09:05.849Z,8.90
2022-11-04T22:11:36.588Z,8.90
2022-11-04T22:14:07.495Z,8.90
2022-11-04T22:16:38.738Z,8.90
2022-11-04T22:19:10.339Z,8.90
2022-11-04T22:21:41.567Z,8.90
2022-11-04T22:24:18.608Z,8.90
2022-11-04T22:26:47.661Z,8.90
2022-11-04T22:29:14.817Z,8.90
2022-11-04T22:31:43.229Z,8.90
2022-11-04T22:34:10.800Z,8.80
2022-11-04T22:36:38.421Z,8.80
2022-11-04T22:39:05.802Z,8.80
2022-11-04T22:41:35.631Z,8.80
2022-11-04T22:44:03.390Z,8.80
2022-11-04T22:46:33.506Z,8.80
2022-11-04T22:49:00.586Z,8.80
2022-11-04T22:51:28.294Z,8.80
2022-11-04T22:54:01.305Z,8.80
2022-11-04T22:56:30.328Z,8.80
2022-11-04T22:58:57.410Z,8.80
2022-11-04T23:01:26.091Z,8.80
2022-11-04T23:03:53.612Z,8.80
2022-11-04T23:06:21.015Z,8.80
2022-11-04T23:08:48.349Z,8.80
2022-11-04T23:11:41.777Z,8.80
2022-11-04T23:14:50.031Z,8.80
2022-11-04T23:17:40.748Z,8.80
2022-11-04T23:20:12.361Z,8.80
2022-11-04T23:22:58.297Z,8.80
2022-11-04T23:25:26.013Z,8.90
2022-11-04T23:28:14.021Z,8.90
2022-11-04T23:30:47.166Z,8.90
2022-11-04T23:33:15.518Z,8.90
2022-11-04T23:36:05.133Z,8.90
2022-11-04T23:38:33.474Z,8.90
2022-11-04T23:41:24.994Z,8.90
2022-11-04T23:43:52.557Z,8.90
2022-11-04T23:46:43.062Z,8.80
2022-11-04T23:49:32.483Z,8.80
2022-11-04T23:52:18.345Z,8.90
2022-11-04T23:55:04.056Z,8.90
2022-11-04T23:57:49.660Z,8.90
